Time;durP1;ratioP1;P1;durP2;ratioP2;P2;SDS_P1;SDS_P2;PMS_P1;PMS_P2;Temp;Humidity;BMP_temperature;BMP_pressure;BME280_temperature;BME280_humidity;BME280_pressure;Samples;Min_cycle;Max_cycle;Signal;HPM_P1;HPM_P2
2022/06/05 00:02:40;;;;;;;13.95;7.15;;;14.10;99.90;;;;;;4972715;28;20073;-84
2022/06/05 00:05:18;;;;;;;14.73;8.80;;;14.10;99.90;;;;;;4970685;28;20045;-83
2022/06/05 00:08:11;;;;;;;14.15;10.02;;;14.10;99.90;;;;;;4974812;28;20038;-83
2022/06/05 00:10:51;;;;;;;13.63;6.20;;;14.10;99.90;;;;;;4959603;28;20045;-83
2022/06/05 00:13:34;;;;;;;13.65;7.30;;;14.00;99.90;;;;;;4958996;28;20046;-83
2022/06/05 00:15:59;;;;;;;17.27;6.45;;;13.90;99.90;;;;;;4974252;28;20451;-83
2022/06/05 00:18:25;;;;;;;14.43;10.02;;;13.80;99.90;;;;;;4959101;28;20046;-82
2022/06/05 00:20:51;;;;;;;11.93;8.13;;;13.90;99.90;;;;;;4971806;28;20129;-83
2022/06/05 00:23:16;;;;;;;14.45;10.10;;;13.90;99.90;;;;;;4958610;28;20057;-82
2022/06/05 00:26:17;;;;;;;15.60;7.78;;;13.90;99.90;;;;;;4973933;28;20540;-83
2022/06/05 00:28:59;;;;;;;13.27;8.05;;;13.80;99.90;;;;;;4908165;29;20163;-83
2022/06/05 00:31:55;;;;;;;13.40;7.57;;;13.80;99.90;;;;;;4909332;29;20044;-83
2022/06/05 00:34:21;;;;;;;12.05;7.80;;;13.70;99.90;;;;;;4879037;29;20044;-82
2022/06/05 00:36:59;;;;;;;16.38;11.82;;;13.70;99.90;;;;;;4881675;29;20036;-83
2022/06/05 00:39:48;;;;;;;14.50;6.68;;;13.70;99.90;;;;;;4912646;29;20551;-82
2022/06/05 00:42:21;;;;;;;15.95;11.00;;;13.80;99.90;;;;;;4879419;29;20040;-82
2022/06/05 00:44:51;;;;;;;14.27;7.68;;;13.70;99.90;;;;;;4909307;29;20426;-83
2022/06/05 00:47:22;;;;;;;14.23;11.02;;;13.70;99.90;;;;;;4896441;29;20498;-83
2022/06/05 00:49:58;;;;;;;11.98;7.78;;;13.70;99.90;;;;;;4879472;29;20083;-83
2022/06/05 00:52:28;;;;;;;15.75;8.35;;;13.70;99.90;;;;;;4907284;29;20047;-83
2022/06/05 00:54:54;;;;;;;14.57;11.35;;;13.60;99.90;;;;;;4896355;29;20059;-83
2022/06/05 00:57:20;;;;;;;16.85;11.73;;;13.60;99.90;;;;;;4896851;29;20490;-83
2022/06/05 00:59:47;;;;;;;13.43;7.90;;;13.70;99.90;;;;;;4896593;29;20075;-83
2022/06/05 01:02:14;;;;;;;15.43;7.72;;;13.60;99.90;;;;;;4880672;29;20469;-83
2022/06/05 01:04:43;;;;;;;15.52;11.55;;;13.50;99.90;;;;;;4917238;28;20120;-83
2022/06/05 01:07:09;;;;;;;18.63;8.45;;;13.60;99.90;;;;;;4972434;28;20039;-83
2022/06/05 01:09:35;;;;;;;15.48;11.75;;;13.50;99.90;;;;;;4951331;28;20038;-82
2022/06/05 01:12:35;;;;;;;15.77;11.55;;;13.50;99.90;;;;;;4967340;28;20027;-81
2022/06/05 01:15:22;;;;;;;14.43;8.35;;;13.60;99.90;;;;;;4952175;28;20471;-82
2022/06/05 01:17:57;;;;;;;15.80;8.32;;;13.50;99.90;;;;;;4958966;28;20073;-82
2022/06/05 01:20:46;;;;;;;17.20;11.98;;;13.50;99.90;;;;;;4973132;28;20110;-81
2022/06/05 01:23:17;;;;;;;12.40;7.88;;;13.50;99.90;;;;;;4973430;28;20038;-81
2022/06/05 01:25:52;;;;;;;16.65;12.82;;;13.50;99.90;;;;;;4989539;28;20037;-81
2022/06/05 01:28:22;;;;;;;13.05;8.48;;;13.50;99.90;;;;;;4968415;28;20110;-82
2022/06/05 01:30:57;;;;;;;16.70;9.18;;;13.40;99.90;;;;;;4957708;28;20058;-82
2022/06/05 01:33:26;;;;;;;18.75;14.00;;;13.40;99.90;;;;;;4958395;28;20406;-82
2022/06/05 01:36:12;;;;;;;13.15;8.20;;;13.40;99.90;;;;;;4956506;28;20431;-82
2022/06/05 01:38:50;;;;;;;14.98;8.27;;;13.40;99.90;;;;;;4989895;28;20044;-81
2022/06/05 01:41:23;;;;;;;15.73;9.60;;;13.40;99.90;;;;;;4958123;28;20120;-82
2022/06/05 01:43:52;;;;;;;15.98;8.52;;;13.30;99.90;;;;;;4973749;28;20070;-83
2022/06/05 01:46:29;;;;;;;15.88;9.57;;;13.30;99.90;;;;;;4956948;28;20037;-83
2022/06/05 01:49:20;;;;;;;15.00;12.65;;;13.30;99.90;;;;;;4961096;28;20030;-83
2022/06/05 01:52:03;;;;;;;16.13;12.88;;;13.30;99.90;;;;;;4967491;28;20035;-83
2022/06/05 01:54:43;;;;;;;15.10;8.60;;;13.40;99.90;;;;;;4956800;28;20051;-83
2022/06/05 01:57:12;;;;;;;14.10;9.25;;;13.30;99.90;;;;;;4967184;28;20118;-83
2022/06/05 01:59:43;;;;;;;17.67;9.85;;;13.30;99.90;;;;;;4971361;28;20069;-82
2022/06/05 02:02:14;;;;;;;14.75;9.38;;;13.20;99.90;;;;;;4963661;28;20495;-83
2022/06/05 02:04:45;;;;;;;16.17;9.98;;;13.20;99.90;;;;;;4961877;28;20504;-84
2022/06/05 02:07:22;;;;;;;16.95;13.85;;;13.20;99.90;;;;;;4984263;28;20161;-83
2022/06/05 02:09:50;;;;;;;16.15;9.77;;;13.30;99.90;;;;;;4970522;28;20045;-83
2022/06/05 02:12:16;;;;;;;19.70;9.70;;;13.20;99.90;;;;;;4958208;28;20436;-83
2022/06/05 02:14:42;;;;;;;18.77;15.10;;;13.20;99.90;;;;;;4956352;28;20045;-83
2022/06/05 02:17:09;;;;;;;15.85;10.32;;;13.20;99.90;;;;;;4971861;28;20050;-83
2022/06/05 02:19:35;;;;;;;17.55;14.93;;;13.20;99.90;;;;;;4973126;28;20034;-83
2022/06/05 02:22:07;;;;;;;18.52;14.98;;;13.20;99.90;;;;;;4972655;28;20411;-83
2022/06/05 02:24:33;;;;;;;17.42;15.40;;;13.30;99.90;;;;;;4972827;28;20049;-83
2022/06/05 02:27:01;;;;;;;15.95;10.40;;;13.30;99.90;;;;;;4972295;28;20026;-83
2022/06/05 02:29:27;;;;;;;16.55;9.60;;;13.30;99.90;;;;;;4973171;28;20519;-83
2022/06/05 02:31:58;;;;;;;18.23;10.82;;;13.20;99.90;;;;;;4991758;28;20030;-83
2022/06/05 02:34:54;;;;;;;17.33;11.32;;;13.10;99.90;;;;;;4961351;28;20038;-83
2022/06/05 02:37:53;;;;;;;19.40;11.45;;;13.10;99.90;;;;;;4975862;28;20045;-83
2022/06/05 02:40:41;;;;;;;17.13;10.05;;;13.10;99.90;;;;;;4960491;28;20120;-83
2022/06/05 02:43:20;;;;;;;18.00;15.45;;;13.10;99.90;;;;;;4976636;28;20038;-83
2022/06/05 02:46:19;;;;;;;15.68;9.40;;;13.20;99.90;;;;;;4961137;28;20049;-83
2022/06/05 02:49:02;;;;;;;18.50;16.15;;;13.20;99.90;;;;;;4977254;28;20089;-83
2022/06/05 02:51:33;;;;;;;18.40;11.02;;;13.20;99.90;;;;;;4961288;28;20078;-83
2022/06/05 02:53:59;;;;;;;16.83;10.10;;;13.10;99.90;;;;;;4975270;28;20530;-83
2022/06/05 02:56:27;;;;;;;20.45;15.52;;;13.20;99.90;;;;;;4975506;28;20034;-83
2022/06/05 02:58:55;;;;;;;19.15;16.58;;;13.20;99.90;;;;;;4977005;28;20138;-83
2022/06/05 03:04:09;;;;;;;19.65;12.38;;;13.20;99.90;;;;;;4975973;28;20038;-83
2022/06/05 03:06:37;;;;;;;17.17;11.57;;;13.20;99.90;;;;;;4957195;28;20492;-83
2022/06/05 03:09:03;;;;;;;17.15;10.52;;;13.10;99.90;;;;;;4967186;28;20460;-82
2022/06/05 03:11:29;;;;;;;18.73;16.65;;;13.10;99.90;;;;;;4990746;28;20516;-83
2022/06/05 03:13:57;;;;;;;21.35;16.75;;;13.20;99.90;;;;;;4955263;28;20125;-83
2022/06/05 03:16:23;;;;;;;17.70;11.15;;;13.20;99.90;;;;;;4958782;28;20034;-83
2022/06/05 03:18:49;;;;;;;20.17;12.23;;;13.20;99.90;;;;;;4965307;28;20494;-83
2022/06/05 03:21:14;;;;;;;19.42;11.75;;;13.20;99.90;;;;;;4975429;28;20086;-83
2022/06/05 03:23:40;;;;;;;20.10;16.70;;;13.20;99.90;;;;;;4975534;28;20054;-83
2022/06/05 03:26:09;;;;;;;17.05;12.15;;;13.20;99.90;;;;;;4972214;28;20030;-83
2022/06/05 03:28:34;;;;;;;18.67;16.65;;;13.20;99.90;;;;;;4971206;28;20149;-83
2022/06/05 03:31:03;;;;;;;17.15;11.07;;;13.30;99.90;;;;;;4975235;28;20129;-83
2022/06/05 03:33:29;;;;;;;17.90;11.18;;;13.30;99.90;;;;;;4960252;28;20072;-84
2022/06/05 03:35:54;;;;;;;18.42;16.17;;;13.20;99.90;;;;;;4970944;28;20038;-84
2022/06/05 03:38:20;;;;;;;18.77;16.50;;;13.30;99.90;;;;;;4974608;28;20446;-83
2022/06/05 03:40:46;;;;;;;18.45;11.00;;;13.40;99.90;;;;;;4972243;28;20382;-83
2022/06/05 03:43:12;;;;;;;19.23;17.25;;;13.30;99.90;;;;;;4972213;28;20046;-84
2022/06/05 03:45:38;;;;;;;19.50;11.38;;;13.30;99.90;;;;;;4970362;28;20043;-83
2022/06/05 03:48:04;;;;;;;18.95;16.80;;;13.30;99.90;;;;;;4970062;28;20042;-83
2022/06/05 03:50:31;;;;;;;21.10;11.57;;;13.40;99.90;;;;;;4959883;28;20125;-83
2022/06/05 03:52:57;;;;;;;18.63;16.55;;;13.40;99.90;;;;;;4974140;28;20558;-83
2022/06/05 03:55:23;;;;;;;18.08;10.80;;;13.40;99.90;;;;;;4951777;28;20042;-83
2022/06/05 03:57:50;;;;;;;20.60;17.00;;;13.40;99.90;;;;;;4974513;28;20038;-83
2022/06/05 04:00:17;;;;;;;20.25;12.30;;;13.40;99.90;;;;;;4974818;28;20113;-83
2022/06/05 04:02:43;;;;;;;18.15;11.75;;;13.50;99.90;;;;;;4958732;28;20113;-83
2022/06/05 04:05:11;;;;;;;19.23;16.88;;;13.40;99.90;;;;;;4975031;28;20480;-83
2022/06/05 04:07:37;;;;;;;18.80;16.88;;;13.50;99.90;;;;;;4975435;28;20447;-83
2022/06/05 04:10:04;;;;;;;21.27;12.32;;;13.50;99.90;;;;;;4974703;28;20042;-83
2022/06/05 04:12:29;;;;;;;19.63;17.15;;;13.60;99.90;;;;;;4959444;28;20583;-83
2022/06/05 04:14:55;;;;;;;19.35;11.88;;;13.50;99.90;;;;;;4972531;28;20121;-83
2022/06/05 04:17:20;;;;;;;21.90;17.58;;;13.50;99.90;;;;;;4974045;28;20042;-83
2022/06/05 04:19:46;;;;;;;19.00;12.38;;;13.50;99.90;;;;;;4953833;28;20038;-83
2022/06/05 04:22:11;;;;;;;21.15;12.60;;;13.50;99.90;;;;;;4975506;28;20500;-83
2022/06/05 04:24:37;;;;;;;20.13;16.48;;;13.50;99.90;;;;;;4972892;28;20500;-83
2022/06/05 04:27:03;;;;;;;20.15;16.20;;;13.60;99.90;;;;;;4958908;28;20496;-83
2022/06/05 04:29:29;;;;;;;20.17;17.38;;;13.60;99.90;;;;;;4971866;28;20511;-83
2022/06/05 04:31:54;;;;;;;19.13;16.80;;;13.70;99.90;;;;;;4972683;28;20510;-83
2022/06/05 04:34:22;;;;;;;16.10;11.45;;;13.70;99.90;;;;;;4969459;28;20042;-83
2022/06/05 04:36:48;;;;;;;19.27;16.75;;;13.70;99.90;;;;;;4972446;28;20070;-83
2022/06/05 04:39:14;;;;;;;19.40;17.05;;;13.80;99.90;;;;;;4957232;28;20057;-83
2022/06/05 04:41:41;;;;;;;19.60;10.80;;;13.90;99.90;;;;;;4953619;28;20423;-83
2022/06/05 04:44:08;;;;;;;19.38;13.20;;;13.80;99.90;;;;;;4957420;28;20049;-83
2022/06/05 04:46:35;;;;;;;18.48;16.00;;;13.90;99.90;;;;;;4973452;28;20046;-83
2022/06/05 04:49:01;;;;;;;17.98;11.93;;;14.00;99.90;;;;;;4971023;28;20041;-83
2022/06/05 04:51:27;;;;;;;17.88;15.63;;;14.00;99.90;;;;;;4959650;28;20022;-84
2022/06/05 04:53:54;;;;;;;18.23;11.98;;;14.10;99.90;;;;;;4966329;28;20554;-83
2022/06/05 04:56:24;;;;;;;17.40;15.52;;;14.20;99.90;;;;;;4969948;28;20039;-83
2022/06/05 04:58:50;;;;;;;17.58;10.43;;;14.20;99.90;;;;;;4951005;28;20042;-83
2022/06/05 05:01:19;;;;;;;15.95;11.20;;;14.30;99.90;;;;;;4964293;28;20046;-83
2022/06/05 05:03:45;;;;;;;17.38;15.55;;;14.30;99.90;;;;;;4965247;28;20064;-83
2022/06/05 05:06:12;;;;;;;16.77;14.68;;;14.40;99.90;;;;;;4956246;28;20034;-83
2022/06/05 05:08:38;;;;;;;16.75;15.02;;;14.50;99.90;;;;;;4969698;28;20404;-83
2022/06/05 05:11:04;;;;;;;16.17;14.48;;;14.60;99.90;;;;;;4962995;28;20066;-83
2022/06/05 05:13:30;;;;;;;17.67;12.10;;;14.60;99.90;;;;;;4971654;28;20581;-83
2022/06/05 05:15:56;;;;;;;16.58;14.60;;;14.60;99.90;;;;;;4970564;28;20121;-83
2022/06/05 05:18:22;;;;;;;16.10;13.85;;;14.70;99.90;;;;;;4950226;28;20038;-83
2022/06/05 05:20:48;;;;;;;17.48;14.88;;;14.80;99.90;;;;;;4974475;28;20042;-84
2022/06/05 05:23:14;;;;;;;17.33;14.43;;;14.80;99.90;;;;;;4974529;28;20050;-84
2022/06/05 05:25:39;;;;;;;20.33;11.57;;;14.90;99.90;;;;;;4957832;28;20477;-83
2022/06/05 05:28:08;;;;;;;16.85;13.95;;;14.90;99.90;;;;;;4955342;28;20030;-83
2022/06/05 05:30:34;;;;;;;18.98;13.90;;;14.90;99.90;;;;;;4974633;28;20045;-82
2022/06/05 05:33:00;;;;;;;17.70;14.23;;;15.00;99.90;;;;;;4956589;28;20034;-83
2022/06/05 05:35:26;;;;;;;17.88;14.32;;;15.10;99.90;;;;;;4974286;28;20030;-83
2022/06/05 05:37:51;;;;;;;16.83;14.05;;;15.10;99.90;;;;;;4972660;28;20496;-83
2022/06/05 05:43:01;;;;;;;14.70;13.15;;;15.20;99.90;;;;;;4974060;28;20046;-83
2022/06/05 05:45:26;;;;;;;17.20;11.05;;;15.20;99.90;;;;;;4958714;28;20397;-83
2022/06/05 05:47:52;;;;;;;15.63;11.10;;;15.20;99.90;;;;;;4971166;28;20041;-83
2022/06/05 05:50:17;;;;;;;14.90;12.80;;;15.20;99.90;;;;;;4974290;28;20041;-83
2022/06/05 05:52:44;;;;;;;15.52;13.63;;;15.30;99.90;;;;;;4973993;28;20035;-83
2022/06/05 05:55:13;;;;;;;17.55;10.93;;;15.40;99.90;;;;;;4973156;28;20085;-83
2022/06/05 05:57:39;;;;;;;16.95;13.52;;;15.50;99.90;;;;;;4972974;28;20081;-84
2022/06/05 06:00:09;;;;;;;15.10;11.77;;;15.50;99.90;;;;;;4970737;28;20069;-84
2022/06/05 06:02:35;;;;;;;14.82;12.90;;;15.50;99.90;;;;;;4974442;28;20489;-83
2022/06/05 06:05:02;;;;;;;17.27;13.32;;;15.60;99.90;;;;;;4992254;28;20105;-84
2022/06/05 06:07:28;;;;;;;15.70;12.77;;;15.70;99.90;;;;;;4968967;28;20049;-84
2022/06/05 06:09:55;;;;;;;16.73;12.52;;;15.70;99.90;;;;;;4973944;28;20122;-83
2022/06/05 06:12:20;;;;;;;14.98;10.55;;;15.80;99.90;;;;;;4971093;28;20045;-83
2022/06/05 06:14:46;;;;;;;14.25;12.75;;;15.80;99.90;;;;;;4978154;28;20034;-84
2022/06/05 06:17:11;;;;;;;15.43;13.00;;;15.90;99.90;;;;;;4974907;28;20499;-83
2022/06/05 06:19:38;;;;;;;13.93;12.43;;;15.90;99.90;;;;;;4960403;28;20139;-83
2022/06/05 06:22:04;;;;;;;15.18;11.57;;;16.00;99.90;;;;;;4974789;28;20051;-83
2022/06/05 06:24:30;;;;;;;17.42;12.65;;;16.00;99.90;;;;;;4988254;28;20500;-83
2022/06/05 06:26:56;;;;;;;14.93;12.43;;;16.10;99.90;;;;;;4973388;28;20045;-84
2022/06/05 06:29:22;;;;;;;14.38;11.75;;;16.20;99.90;;;;;;4974432;28;20556;-84
2022/06/05 06:31:47;;;;;;;14.93;11.75;;;16.30;99.90;;;;;;4961083;28;20034;-84
2022/06/05 06:34:13;;;;;;;13.80;10.13;;;16.30;99.90;;;;;;4976039;28;20042;-84
2022/06/05 06:36:39;;;;;;;13.63;11.50;;;16.40;99.90;;;;;;4951950;28;20042;-83
2022/06/05 06:39:04;;;;;;;14.77;11.70;;;16.40;99.90;;;;;;4976457;28;20076;-83
2022/06/05 06:41:30;;;;;;;15.13;11.98;;;16.50;99.90;;;;;;4975832;28;20050;-83
2022/06/05 06:43:56;;;;;;;14.20;11.20;;;16.60;99.90;;;;;;4975037;28;20045;-83
2022/06/05 06:46:21;;;;;;;13.02;11.02;;;16.70;99.90;;;;;;4976252;28;20041;-83
2022/06/05 06:48:48;;;;;;;13.73;10.07;;;16.80;99.90;;;;;;4975968;28;20038;-83
2022/06/05 06:51:16;;;;;;;13.00;10.75;;;16.90;99.90;;;;;;4977440;28;20054;-84
2022/06/05 06:53:42;;;;;;;13.40;9.52;;;17.00;99.90;;;;;;4972583;28;20046;-83
2022/06/05 06:56:17;;;;;;;12.82;10.88;;;17.10;99.90;;;;;;4976755;28;20045;-84
2022/06/05 06:58:43;;;;;;;13.77;10.20;;;17.20;99.90;;;;;;4972412;28;20115;-82
2022/06/05 07:01:09;;;;;;;13.43;10.35;;;17.30;99.90;;;;;;4973734;28;20496;-82
2022/06/05 07:03:35;;;;;;;13.93;9.95;;;17.40;99.90;;;;;;4974520;28;20451;-81
2022/06/05 07:06:02;;;;;;;13.25;10.05;;;17.60;99.90;;;;;;4969499;28;20088;-82
2022/06/05 07:08:28;;;;;;;12.90;9.70;;;17.60;99.90;;;;;;4976455;28;20094;-82
2022/06/05 07:10:53;;;;;;;12.25;9.73;;;17.80;99.90;;;;;;4961141;28;20546;-82
2022/06/05 07:13:19;;;;;;;13.75;9.95;;;17.80;99.90;;;;;;4976362;28;20074;-82
2022/06/05 07:15:45;;;;;;;12.40;9.10;;;17.90;99.90;;;;;;4975718;28;20038;-82
2022/06/05 07:18:10;;;;;;;11.10;9.13;;;18.00;99.90;;;;;;4976698;28;20045;-82
2022/06/05 07:20:39;;;;;;;11.63;8.77;;;18.10;99.90;;;;;;4961066;28;20041;-82
2022/06/05 07:23:06;;;;;;;11.90;9.48;;;18.20;99.90;;;;;;4956600;28;20070;-82
2022/06/05 07:25:33;;;;;;;13.20;9.93;;;18.30;99.90;;;;;;4973831;28;20038;-82
2022/06/05 07:27:58;;;;;;;12.40;9.07;;;18.40;99.90;;;;;;4973992;28;20527;-82
2022/06/05 07:30:25;;;;;;;14.10;9.25;;;18.40;99.90;;;;;;4975120;28;20038;-82
2022/06/05 07:32:51;;;;;;;10.63;8.57;;;18.50;99.90;;;;;;4975462;28;20034;-82
2022/06/05 07:35:18;;;;;;;11.27;8.73;;;18.60;99.90;;;;;;4960038;28;20038;-83
2022/06/05 07:37:44;;;;;;;11.52;8.73;;;18.70;99.90;;;;;;4960480;28;20096;-83
2022/06/05 07:40:10;;;;;;;13.05;8.50;;;18.70;99.90;;;;;;4958651;28;20484;-83
2022/06/05 07:42:37;;;;;;;12.23;8.02;;;18.80;99.90;;;;;;4959580;28;20044;-83
2022/06/05 07:45:04;;;;;;;11.20;8.32;;;18.90;99.90;;;;;;4968248;28;20042;-82
2022/06/05 07:47:30;;;;;;;12.57;8.57;;;18.90;99.90;;;;;;4959681;28;20034;-83
2022/06/05 07:49:56;;;;;;;12.35;8.82;;;19.00;99.90;;;;;;4957871;28;20041;-82
2022/06/05 07:55:05;;;;;;;10.23;7.65;;;19.10;99.90;;;;;;4975915;28;20042;-82
2022/06/05 07:57:31;;;;;;;11.13;8.07;;;19.20;99.90;;;;;;4972324;28;20046;-82
2022/06/05 07:59:57;;;;;;;10.18;7.38;;;19.30;99.90;;;;;;4957156;28;20517;-82
2022/06/05 08:02:25;;;;;;;11.57;8.00;;;19.30;99.90;;;;;;4970213;28;20045;-82
2022/06/05 08:04:52;;;;;;;11.02;7.82;;;19.40;99.90;;;;;;4974350;28;20043;-83
2022/06/05 08:07:21;;;;;;;10.63;7.82;;;19.50;99.90;;;;;;4973270;28;20034;-82
2022/06/05 08:09:47;;;;;;;14.05;7.68;;;19.60;99.90;;;;;;5001042;28;20154;-83
2022/06/05 08:12:15;;;;;;;11.63;7.13;;;19.60;99.90;;;;;;4989999;28;20035;-82
2022/06/05 08:14:43;;;;;;;10.55;7.22;;;19.70;99.90;;;;;;4965156;28;20125;-82
2022/06/05 08:17:11;;;;;;;11.43;7.68;;;19.80;99.90;;;;;;4980287;28;20049;-82
2022/06/05 08:19:39;;;;;;;10.70;7.47;;;19.80;99.90;;;;;;4968218;28;20535;-83
2022/06/05 08:22:06;;;;;;;10.35;7.30;;;19.90;99.90;;;;;;4974193;28;20066;-83
2022/06/05 08:24:32;;;;;;;10.52;7.10;;;19.90;99.90;;;;;;4974304;28;20049;-83
2022/06/05 08:26:57;;;;;;;12.23;7.43;;;20.00;99.90;;;;;;4988766;28;20042;-83
2022/06/05 08:29:23;;;;;;;11.27;7.68;;;20.00;99.90;;;;;;4990189;28;20435;-83
2022/06/05 08:31:48;;;;;;;11.48;7.35;;;20.10;99.90;;;;;;4973439;28;20081;-83
2022/06/05 08:34:15;;;;;;;11.05;7.25;;;20.10;99.90;;;;;;4973364;28;20684;-83
2022/06/05 08:36:41;;;;;;;11.32;7.13;;;20.20;99.90;;;;;;4982245;28;20073;-83
2022/06/05 08:42:19;;;;;;;11.57;7.10;;;20.40;99.90;;;;;;4974699;28;20129;-83
2022/06/05 08:45:01;;;;;;;10.98;7.47;;;20.60;99.90;;;;;;4956899;28;20471;-84
2022/06/05 08:47:33;;;;;;;10.90;7.63;;;20.60;99.90;;;;;;4971778;28;20105;-83
2022/06/05 08:50:06;;;;;;;10.65;7.07;;;20.70;99.90;;;;;;4951470;28;20042;-83
2022/06/05 08:52:36;;;;;;;9.25;7.07;;;20.80;99.90;;;;;;4974031;28;20451;-84
2022/06/05 08:55:24;;;;;;;10.80;8.00;;;20.90;99.90;;;;;;4971176;28;20088;-84
2022/06/05 08:57:55;;;;;;;9.52;6.80;;;21.00;99.90;;;;;;4972315;28;20076;-84
2022/06/05 09:00:31;;;;;;;9.98;6.78;;;21.10;99.90;;;;;;4990385;28;20038;-84
2022/06/05 09:03:10;;;;;;;11.10;7.07;;;21.20;99.90;;;;;;4971071;28;20117;-84
2022/06/05 09:06:02;;;;;;;9.70;6.68;;;21.20;99.90;;;;;;4972031;28;20034;-83
2022/06/05 09:08:31;;;;;;;11.02;7.00;;;21.30;99.90;;;;;;4956876;28;20158;-84
2022/06/05 09:11:04;;;;;;;9.75;7.25;;;21.30;99.90;;;;;;4973212;28;20100;-84
2022/06/05 09:13:56;;;;;;;10.32;6.70;;;21.40;99.90;;;;;;4972887;28;20120;-84
2022/06/05 09:16:28;;;;;;;11.45;6.80;;;21.50;99.90;;;;;;4969536;28;20483;-84
2022/06/05 09:18:55;;;;;;;9.50;6.88;;;21.50;99.90;;;;;;4957975;28;20125;-84
2022/06/05 09:21:33;;;;;;;10.27;6.78;;;21.60;99.90;;;;;;4973734;28;20356;-84
2022/06/05 09:24:26;;;;;;;10.05;6.85;;;21.70;99.90;;;;;;4972406;28;20062;-84
2022/06/05 09:27:43;;;;;;;11.82;6.57;;;21.80;99.90;;;;;;4971591;28;20031;-84
2022/06/05 09:30:23;;;;;;;10.18;6.55;;;21.90;99.90;;;;;;4877836;29;20037;-84
2022/06/05 09:33:23;;;;;;;10.02;7.30;;;22.00;99.90;;;;;;4885410;29;20113;-84
2022/06/05 09:35:56;;;;;;;10.80;7.97;;;22.10;99.70;;;;;;4952244;28;20527;-84
2022/06/05 09:38:29;;;;;;;11.60;6.45;;;22.20;98.90;;;;;;4957451;28;20048;-84
2022/06/05 09:41:06;;;;;;;10.20;6.50;;;22.30;99.40;;;;;;4975093;28;20444;-84
2022/06/05 09:43:45;;;;;;;10.68;7.80;;;22.40;99.00;;;;;;4974336;28;20095;-84
2022/06/05 09:46:32;;;;;;;10.70;7.03;;;22.40;98.20;;;;;;4975816;28;20495;-84
2022/06/05 09:49:02;;;;;;;9.98;6.57;;;22.40;98.20;;;;;;4977057;28;20038;-84
2022/06/05 09:51:27;;;;;;;11.15;6.22;;;22.50;98.50;;;;;;4976751;28;20121;-84
2022/06/05 09:53:59;;;;;;;9.82;6.60;;;22.60;98.30;;;;;;4975676;28;20471;-84
2022/06/05 09:58:24;;;;;;;9.50;7.07;;;22.60;97.60;;;;;;4976577;28;20077;-84
2022/06/05 09:59:40;;;;;;;9.80;5.93;;;22.60;97.10;;;;;;4977329;28;20058;-84
2022/06/05 10:02:07;;;;;;;9.48;6.15;;;22.60;98.10;;;;;;4974626;28;20073;-84
2022/06/05 10:04:34;;;;;;;10.93;6.80;;;22.70;97.60;;;;;;4976992;28;21302;-84
2022/06/05 10:07:06;;;;;;;10.07;6.43;;;22.80;97.80;;;;;;4978561;28;20026;-84
2022/06/05 10:09:34;;;;;;;9.68;6.72;;;22.80;97.00;;;;;;4993093;28;20077;-84
2022/06/05 10:12:15;;;;;;;13.00;6.72;;;22.80;97.20;;;;;;4960681;28;20026;-84
2022/06/05 10:14:51;;;;;;;11.63;7.65;;;22.90;97.80;;;;;;4977861;28;20049;-84
2022/06/05 10:17:32;;;;;;;10.48;7.40;;;22.90;96.40;;;;;;4976991;28;20420;-84
2022/06/05 10:20:20;;;;;;;11.48;7.20;;;22.90;96.70;;;;;;4977584;28;20523;-83
2022/06/05 10:23:13;;;;;;;12.48;7.68;;;23.00;95.90;;;;;;4972534;28;20042;-84
2022/06/05 10:25:44;;;;;;;12.35;6.90;;;23.20;97.30;;;;;;4977287;28;20049;-83
2022/06/05 10:28:18;;;;;;;11.23;7.05;;;23.30;96.00;;;;;;4975940;28;20506;-84
2022/06/05 10:30:59;;;;;;;11.15;7.00;;;23.40;95.20;;;;;;4953160;28;20030;-84
2022/06/05 10:33:49;;;;;;;10.32;6.65;;;23.40;94.90;;;;;;4974823;28;20120;-83
2022/06/05 10:36:18;;;;;;;10.80;6.88;;;23.40;94.60;;;;;;4975716;28;20495;-83
2022/06/05 10:39:03;;;;;;;10.18;7.10;;;23.40;94.90;;;;;;4976954;28;20030;-84
2022/06/05 10:41:40;;;;;;;9.95;6.05;;;23.40;94.50;;;;;;4991381;28;20042;-84
2022/06/05 10:44:39;;;;;;;8.43;5.82;;;23.40;95.10;;;;;;4991628;28;20035;-84
2022/06/05 10:47:11;;;;;;;10.02;7.10;;;23.50;95.20;;;;;;4967568;28;20374;-84
2022/06/05 10:50:14;;;;;;;9.98;6.60;;;23.40;93.30;;;;;;4975122;28;20515;-84
2022/06/05 10:53:05;;;;;;;10.20;6.50;;;23.40;93.60;;;;;;4968656;28;20507;-83
2022/06/05 10:55:52;;;;;;;9.82;6.82;;;23.40;93.40;;;;;;4960216;28;20048;-84
2022/06/05 10:58:34;;;;;;;9.85;6.25;;;23.40;93.60;;;;;;4972215;28;20034;-84
2022/06/05 11:01:23;;;;;;;10.82;6.75;;;23.30;93.80;;;;;;4981458;28;20045;-84
2022/06/05 11:04:04;;;;;;;10.75;6.57;;;23.30;93.80;;;;;;4973238;28;20045;-84
2022/06/05 11:07:03;;;;;;;9.25;6.60;;;23.30;93.70;;;;;;4951633;28;20122;-84
2022/06/05 11:10:04;;;;;;;9.43;6.10;;;23.30;94.40;;;;;;4959343;28;20403;-83
2022/06/05 11:15:36;;;;;;;10.77;5.90;;;23.30;95.20;;;;;;4988950;28;20042;-83
2022/06/05 11:18:22;;;;;;;8.50;6.07;;;23.30;94.90;;;;;;4975079;28;20529;-83
2022/06/05 11:20:55;;;;;;;9.32;6.05;;;23.30;94.70;;;;;;4991563;28;20038;-84
2022/06/05 11:23:25;;;;;;;9.52;6.13;;;23.20;94.20;;;;;;4951053;28;20038;-84
2022/06/05 11:26:15;;;;;;;10.00;6.00;;;23.20;94.30;;;;;;4958098;28;20113;-84
2022/06/05 11:28:46;;;;;;;10.00;6.30;;;23.20;94.70;;;;;;4968627;28;20043;-83
2022/06/05 11:31:36;;;;;;;10.57;6.13;;;23.20;94.50;;;;;;4958821;28;20096;-83
2022/06/05 11:34:30;;;;;;;11.32;6.40;;;23.30;94.40;;;;;;4969198;28;20050;-83
2022/06/05 11:37:14;;;;;;;9.32;6.72;;;23.20;94.80;;;;;;4971929;28;20034;-84
2022/06/05 11:39:53;;;;;;;10.45;6.22;;;23.20;93.80;;;;;;4969036;28;20034;-83
2022/06/05 11:42:28;;;;;;;11.48;6.85;;;23.20;94.40;;;;;;4973359;28;20495;-84
2022/06/05 11:45:04;;;;;;;9.00;6.13;;;23.20;94.00;;;;;;4957201;28;20081;-84
2022/06/05 11:47:35;;;;;;;9.43;6.70;;;23.20;95.00;;;;;;4959697;28;20044;-83
2022/06/05 11:50:12;;;;;;;9.63;7.07;;;23.30;94.60;;;;;;4960323;28;20428;-84
2022/06/05 11:52:52;;;;;;;10.23;6.22;;;23.30;95.20;;;;;;4975907;28;20049;-84
2022/06/05 11:55:24;;;;;;;8.77;6.20;;;23.30;95.40;;;;;;4975592;28;20049;-84
2022/06/05 11:58:18;;;;;;;8.88;5.63;;;23.40;95.30;;;;;;4974437;28;20035;-83
2022/06/05 12:00:52;;;;;;;8.65;5.78;;;23.40;95.70;;;;;;4974552;28;20038;-83
2022/06/05 12:03:36;;;;;;;10.10;6.00;;;23.40;95.00;;;;;;4974790;28;20447;-84
2022/06/05 12:06:13;;;;;;;9.73;5.63;;;23.40;94.80;;;;;;4972034;28;20042;-84
2022/06/05 12:08:45;;;;;;;10.77;5.80;;;23.40;95.50;;;;;;4970383;28;20045;-83
2022/06/05 12:11:23;;;;;;;9.98;5.93;;;23.40;95.80;;;;;;4956791;28;20470;-83
2022/06/05 12:14:04;;;;;;;8.23;5.68;;;23.50;96.30;;;;;;4990331;28;20034;-83
2022/06/05 12:16:45;;;;;;;9.77;5.75;;;23.40;96.20;;;;;;4972277;28;20176;-84
2022/06/05 12:19:45;;;;;;;9.65;5.53;;;23.50;94.90;;;;;;4985376;28;20535;-84
2022/06/05 12:22:47;;;;;;;9.98;6.00;;;23.50;95.50;;;;;;4974085;28;20041;-84
2022/06/05 12:25:12;;;;;;;8.38;5.78;;;23.50;95.00;;;;;;4954825;28;20042;-84
2022/06/05 12:27:55;;;;;;;8.48;5.75;;;23.50;94.90;;;;;;4967856;28;20058;-84
2022/06/05 12:30:31;;;;;;;8.70;5.85;;;23.50;95.30;;;;;;4970102;28;20041;-84
2022/06/05 12:33:15;;;;;;;10.30;5.63;;;23.50;95.20;;;;;;4973620;28;20129;-84
2022/06/05 12:35:45;;;;;;;8.40;5.50;;;23.60;94.90;;;;;;4973618;28;20048;-84
2022/06/05 12:38:34;;;;;;;8.82;6.10;;;23.60;95.80;;;;;;4971635;28;20117;-84
2022/06/05 12:41:42;;;;;;;8.68;5.78;;;23.60;96.10;;;;;;4970931;28;20085;-84
2022/06/05 12:44:17;;;;;;;8.85;5.78;;;23.70;96.30;;;;;;4971839;28;20066;-84
2022/06/05 12:46:48;;;;;;;9.23;5.60;;;23.80;96.90;;;;;;4972465;28;20066;-84
2022/06/05 12:49:31;;;;;;;10.27;5.63;;;23.80;97.40;;;;;;4989851;28;20034;-84
2022/06/05 12:51:57;;;;;;;9.35;5.93;;;23.90;95.90;;;;;;4970728;28;20034;-84
2022/06/05 12:54:31;;;;;;;8.98;5.57;;;24.00;94.30;;;;;;4974279;28;20104;-84
2022/06/05 12:56:58;;;;;;;9.25;5.82;;;24.00;94.30;;;;;;4958894;28;20070;-84
2022/06/05 12:59:55;;;;;;;9.50;5.57;;;24.00;93.70;;;;;;4972466;28;20050;-84
2022/06/05 13:02:28;;;;;;;9.48;5.28;;;24.10;94.10;;;;;;4973241;28;20129;-84
2022/06/05 13:05:21;;;;;;;9.50;5.78;;;24.10;94.30;;;;;;4955277;28;20038;-84
2022/06/05 13:07:58;;;;;;;10.60;5.57;;;24.10;94.70;;;;;;4971011;28;20031;-84
2022/06/05 13:10:26;;;;;;;10.02;6.20;;;24.20;94.50;;;;;;4971971;28;20030;-84
2022/06/05 13:13:04;;;;;;;9.02;5.68;;;24.20;93.50;;;;;;4954045;28;20042;-84
2022/06/05 13:16:06;;;;;;;11.75;5.35;;;24.30;93.70;;;;;;4973249;28;20507;-84
2022/06/05 13:18:42;;;;;;;8.57;5.50;;;24.30;94.20;;;;;;4879468;29;20088;-84